createdAt,value
2023-04-01T00:02:17.565Z,86.97
2023-04-01T00:04:47.539Z,87.02
2023-04-01T00:07:17.332Z,87.09
2023-04-01T00:09:47.058Z,86.95
2023-04-01T00:12:16.891Z,87.15
2023-04-01T00:14:46.753Z,87.32
2023-04-01T00:17:19.003Z,87.34
2023-04-01T00:19:49.163Z,87.30
2023-04-01T00:22:19.072Z,87.33
2023-04-01T00:24:48.935Z,87.15
2023-04-01T00:27:18.738Z,87.14
2023-04-01T00:29:49.326Z,86.95
2023-04-01T00:32:21.676Z,86.75
2023-04-01T00:34:54.327Z,86.79
2023-04-01T00:37:24.422Z,86.78
2023-04-01T00:39:54.160Z,86.68
2023-04-01T00:42:24.524Z,86.52
2023-04-01T00:44:55.107Z,86.48
2023-04-01T00:47:29.773Z,86.52
2023-04-01T00:49:59.514Z,86.48
2023-04-01T00:52:30.057Z,86.39
2023-04-01T00:55:02.307Z,86.41
2023-04-01T00:57:34.939Z,86.49
2023-04-01T01:00:04.664Z,86.50
2023-04-01T01:02:37.317Z,86.40
2023-04-01T01:05:07.893Z,86.55
2023-04-01T01:07:43.440Z,86.42
2023-04-01T01:10:16.068Z,86.44
2023-04-01T01:12:49.808Z,86.32
2023-04-01T01:15:24.287Z,86.39
2023-04-01T01:18:02.382Z,86.32
2023-04-01T01:20:52.562Z,86.31
2023-04-01T01:23:47.480Z,86.21
2023-04-01T01:26:42.959Z,86.33
2023-04-01T01:29:28.030Z,86.41
2023-04-01T01:32:03.184Z,86.52
2023-04-01T01:34:38.997Z,86.57
2023-04-01T01:37:15.167Z,86.74
2023-04-01T01:39:46.026Z,86.83
2023-04-01T01:42:18.278Z,87.18
2023-04-01T01:44:49.769Z,87.31
2023-04-01T01:47:20.989Z,87.61
2023-04-01T01:49:51.170Z,87.92
2023-04-01T01:52:23.532Z,88.42
2023-04-01T01:54:53.414Z,88.52
2023-04-01T01:57:28.129Z,88.63
2023-04-01T02:00:04.324Z,88.71
2023-04-01T02:02:43.336Z,88.72
2023-04-01T02:05:14.907Z,88.79
2023-04-01T02:07:50.950Z,88.98
2023-04-01T02:10:22.022Z,88.95
2023-04-01T02:12:52.864Z,89.15
2023-04-01T02:15:23.908Z,89.37
2023-04-01T02:17:54.909Z,89.43
2023-04-01T02:20:26.028Z,89.57
2023-04-01T02:23:00.826Z,90.11
2023-04-01T02:25:33.546Z,90.39
2023-04-01T02:28:04.118Z,90.42
2023-04-01T02:30:36.258Z,90.67
2023-04-01T02:33:07.453Z,90.92
2023-04-01T02:35:37.906Z,91.05
2023-04-01T02:38:10.433Z,91.15
2023-04-01T02:40:49.425Z,91.47
2023-04-01T02:43:20.068Z,91.36
2023-04-01T02:45:49.730Z,91.63
2023-04-01T02:48:19.454Z,91.69
2023-04-01T02:50:50.475Z,91.83
2023-04-01T02:53:22.756Z,92.00
2023-04-01T02:55:53.648Z,91.83
2023-04-01T02:58:23.363Z,92.08
2023-04-01T03:00:53.276Z,92.08
2023-04-01T03:03:23.021Z,92.27
2023-04-01T03:05:52.960Z,92.06
2023-04-01T03:08:25.364Z,92.36
2023-04-01T03:10:55.073Z,92.45
2023-04-01T03:13:24.771Z,92.21
2023-04-01T03:15:54.458Z,92.40
2023-04-01T03:18:24.186Z,92.28
2023-04-01T03:20:53.899Z,92.40
2023-04-01T03:23:26.289Z,92.19
2023-04-01T03:25:55.958Z,92.08
2023-04-01T03:28:25.686Z,92.04
2023-04-01T03:30:55.401Z,92.18
2023-04-01T03:33:25.278Z,92.00
2023-04-01T03:35:55.051Z,92.16
2023-04-01T03:38:27.389Z,92.36
2023-04-01T03:40:57.055Z,92.30
2023-04-01T03:43:27.680Z,92.14
2023-04-01T03:45:59.079Z,92.22
2023-04-01T03:48:29.161Z,92.21
2023-04-01T03:50:58.851Z,92.24
2023-04-01T03:53:31.341Z,92.29
2023-04-01T03:56:07.995Z,92.32
2023-04-01T03:58:39.904Z,92.45
2023-04-01T04:01:18.672Z,92.49
2023-04-01T04:03:50.273Z,92.74
2023-04-01T04:06:21.654Z,92.91
2023-04-01T04:08:54.418Z,93.13
2023-04-01T04:11:25.345Z,92.99
2023-04-01T04:13:57.280Z,93.18
2023-04-01T04:16:28.135Z,93.18
2023-04-01T04:19:02.192Z,93.40
2023-04-01T04:21:31.895Z,93.41
2023-04-01T04:24:05.882Z,93.44
2023-04-01T04:26:55.553Z,93.58
2023-04-01T04:29:25.304Z,93.49
2023-04-01T04:31:58.248Z,93.53
2023-04-01T04:34:28.208Z,93.67
2023-04-01T04:36:57.911Z,93.59
2023-04-01T04:39:35.478Z,93.65
2023-04-01T04:42:05.933Z,93.55
2023-04-01T04:44:35.954Z,93.71
2023-04-01T04:47:05.801Z,93.61
2023-04-01T04:49:35.853Z,93.94
2023-04-01T04:52:10.076Z,93.88
2023-04-01T04:54:42.365Z,93.84
2023-04-01T04:57:12.154Z,93.84
2023-04-01T04:59:48.557Z,93.89
2023-04-01T05:02:53.515Z,93.94
2023-04-01T05:05:23.388Z,93.84
2023-04-01T05:07:53.147Z,94.04
2023-04-01T05:10:25.963Z,94.04
2023-04-01T05:12:55.715Z,94.26
2023-04-01T05:15:26.707Z,94.25
2023-04-01T05:17:57.794Z,94.32
2023-04-01T05:20:27.756Z,94.56
2023-04-01T05:22:59.825Z,94.34
2023-04-01T05:25:32.448Z,94.53
2023-04-01T05:28:02.380Z,94.76
2023-04-01T05:30:32.354Z,94.78
2023-04-01T05:33:07.924Z,94.73
2023-04-01T05:35:37.889Z,95.07
2023-04-01T05:38:08.253Z,95.11
2023-04-01T05:40:40.799Z,95.24
2023-04-01T05:43:10.622Z,95.28
2023-04-01T05:45:40.495Z,95.41
2023-04-01T05:48:30.169Z,95.46
2023-04-01T05:50:59.922Z,95.30
2023-04-01T05:53:29.577Z,95.67
2023-04-01T05:56:06.060Z,95.66
2023-04-01T05:58:40.757Z,95.70
2023-04-01T06:01:16.309Z,95.70
2023-04-01T06:03:47.745Z,95.88
2023-04-01T06:06:19.042Z,95.83
2023-04-01T06:08:49.137Z,95.96
2023-04-01T06:11:29.296Z,96.27
2023-04-01T06:14:14.405Z,96.17
2023-04-01T06:17:00.810Z,96.27
2023-04-01T06:19:36.879Z,96.45
2023-04-01T06:22:22.100Z,96.48
2023-04-01T06:25:09.008Z,96.50
2023-04-01T06:27:44.534Z,96.66
2023-04-01T06:30:29.080Z,96.48
2023-04-01T06:33:09.966Z,96.69
2023-04-01T06:35:45.559Z,96.64
2023-04-01T06:38:48.246Z,96.64
2023-04-01T06:41:30.812Z,96.84
2023-04-01T06:44:12.262Z,96.93
2023-04-01T06:47:02.839Z,97.07
2023-04-01T06:49:59.062Z,97.01
2023-04-01T06:52:52.805Z,97.08
2023-04-01T06:55:44.660Z,97.19
2023-04-01T06:58:27.739Z,97.10
2023-04-01T07:01:02.298Z,97.12
2023-04-01T07:03:34.971Z,97.07
2023-04-01T07:06:08.384Z,97.21
2023-04-01T07:08:44.398Z,97.27
2023-04-01T07:11:15.938Z,97.15
2023-04-01T07:13:49.345Z,97.14
2023-04-01T07:16:27.142Z,97.16
2023-04-01T07:19:00.799Z,97.34
2023-04-01T07:21:45.492Z,97.36
2023-04-01T07:24:26.668Z,97.39
2023-04-01T07:27:07.078Z,97.36
2023-04-01T07:29:38.256Z,97.34
2023-04-01T07:32:30.766Z,97.38
2023-04-01T07:35:09.831Z,97.52
2023-04-01T07:37:45.005Z,97.41
2023-04-01T07:40:25.744Z,97.55
2023-04-01T07:43:13.866Z,97.68
2023-04-01T07:45:55.636Z,97.73
2023-04-01T07:48:34.125Z,97.67
2023-04-01T07:51:11.352Z,97.77
2023-04-01T07:53:46.288Z,97.72
2023-04-01T07:56:19.677Z,97.82
2023-04-01T07:58:57.511Z,97.77
2023-04-01T08:01:53.106Z,97.65
2023-04-01T08:04:43.328Z,97.71
2023-04-01T08:07:17.279Z,97.45
2023-04-01T08:10:09.614Z,97.55
2023-04-01T08:13:06.271Z,97.52
2023-04-01T08:15:58.733Z,97.45
2023-04-01T08:18:43.505Z,97.48
2023-04-01T08:21:19.248Z,97.37
2023-04-01T08:23:51.842Z,97.56
2023-04-01T08:26:30.729Z,97.84
2023-04-01T08:29:04.099Z,97.82
2023-04-01T08:31:38.764Z,97.80
2023-04-01T08:34:12.325Z,97.97
2023-04-01T08:36:47.365Z,98.13
2023-04-01T08:39:21.964Z,98.08
2023-04-01T08:42:21.026Z,98.13
2023-04-01T08:45:14.839Z,98.19
2023-04-01T08:48:25.488Z,98.12
2023-04-01T08:51:14.913Z,98.07
2023-04-01T08:54:13.050Z,98.13
2023-04-01T08:56:46.369Z,98.04
2023-04-01T08:59:31.460Z,97.86
2023-04-01T09:02:16.894Z,98.09
2023-04-01T09:05:23.339Z,98.05
2023-04-01T09:08:01.903Z,98.06
2023-04-01T09:10:55.007Z,98.10
2023-04-01T09:14:16.517Z,98.14
2023-04-01T09:17:02.900Z,98.25
2023-04-01T09:19:38.366Z,98.34
2023-04-01T09:22:28.333Z,98.47
2023-04-01T09:25:10.044Z,98.41
2023-04-01T09:27:48.383Z,98.57
2023-04-01T09:30:36.944Z,98.57
2023-04-01T09:33:36.148Z,98.55
2023-04-01T09:36:08.734Z,98.40
2023-04-01T09:38:48.015Z,98.39
2023-04-01T09:41:26.834Z,98.54
2023-04-01T09:44:25.618Z,98.54
2023-04-01T09:47:23.312Z,98.61
2023-04-01T09:50:24.267Z,98.69
2023-04-01T09:53:00.994Z,98.68
2023-04-01T09:55:51.561Z,98.87
2023-04-01T09:58:43.441Z,98.94
2023-04-01T10:02:03.340Z,99.06
2023-04-01T10:05:00.183Z,98.97
2023-04-01T10:08:01.968Z,99.13
2023-04-01T10:10:50.788Z,99.13
2023-04-01T10:13:55.548Z,99.35
2023-04-01T10:16:58.545Z,99.27
2023-04-01T10:20:04.807Z,99.41
2023-04-01T10:23:02.365Z,99.54
2023-04-01T10:25:58.291Z,99.47
2023-04-01T10:28:58.593Z,99.45
2023-04-01T10:31:55.978Z,99.49
2023-04-01T10:34:58.251Z,99.27
2023-04-01T10:37:55.292Z,99.29
2023-04-01T10:41:07.262Z,99.27
2023-04-01T10:44:36.479Z,99.07
2023-04-01T10:47:47.745Z,98.92
2023-04-01T10:50:36.447Z,98.72
2023-04-01T10:53:34.800Z,98.96
2023-04-01T10:56:43.060Z,98.70
2023-04-01T11:00:17.481Z,98.83
2023-04-01T11:03:56.267Z,98.72
2023-04-01T11:07:13.463Z,98.69
2023-04-01T11:10:27.640Z,98.65
2023-04-01T11:13:29.747Z,98.72
2023-04-01T11:16:23.097Z,98.89
2023-04-01T11:19:13.728Z,99.10
2023-04-01T11:21:58.612Z,99.03
2023-04-01T11:25:00.993Z,99.06
2023-04-01T11:27:54.587Z,99.04
2023-04-01T11:30:30.937Z,99.07
2023-04-01T11:33:06.282Z,99.04
2023-04-01T11:36:07.772Z,99.20
2023-04-01T11:38:50.858Z,99.19
2023-04-01T11:41:44.738Z,99.27
2023-04-01T11:44:34.066Z,99.10
2023-04-01T11:47:38.622Z,99.12
2023-04-01T11:50:20.189Z,99.34
2023-04-01T11:53:06.758Z,99.27
2023-04-01T11:55:44.602Z,99.35
2023-04-01T11:58:28.003Z,99.34
2023-04-01T12:01:21.052Z,99.27
2023-04-01T12:04:21.695Z,99.37
2023-04-01T12:06:56.494Z,99.39
2023-04-01T12:09:37.858Z,99.38
2023-04-01T12:12:18.102Z,99.53
2023-04-01T12:14:52.283Z,99.64
2023-04-01T12:17:33.787Z,99.67
2023-04-01T12:20:20.582Z,99.54
2023-04-01T12:22:55.225Z,99.50
2023-04-01T12:25:39.839Z,99.44
2023-04-01T12:28:14.909Z,99.36
2023-04-01T12:31:01.382Z,99.52
2023-04-01T12:34:04.429Z,99.33
2023-04-01T12:36:49.919Z,99.23
2023-04-01T12:39:41.184Z,99.14
2023-04-01T12:42:20.479Z,99.06
2023-04-01T12:45:03.455Z,98.94
2023-04-01T12:47:53.466Z,98.85
2023-04-01T12:50:32.243Z,98.78
2023-04-01T12:53:21.877Z,98.82
2023-04-01T12:55:53.807Z,98.60
2023-04-01T12:58:42.132Z,98.26
2023-04-01T13:01:31.770Z,98.13
2023-04-01T13:04:43.144Z,97.75
2023-04-01T13:07:27.047Z,97.57
2023-04-01T13:10:03.861Z,97.61
2023-04-01T13:12:46.395Z,97.57
2023-04-01T13:15:27.259Z,97.53
2023-04-01T13:18:01.093Z,97.49
2023-04-01T13:20:39.703Z,97.41
2023-04-01T13:23:17.491Z,97.58
2023-04-01T13:25:59.205Z,97.48
2023-04-01T13:28:40.746Z,97.54
2023-04-01T13:31:18.823Z,97.56
2023-04-01T13:33:52.863Z,97.59
2023-04-01T13:36:24.277Z,97.60
2023-04-01T13:39:06.472Z,97.63
2023-04-01T13:41:57.641Z,97.76
2023-04-01T13:44:33.399Z,97.84
2023-04-01T13:47:38.894Z,97.76
2023-04-01T13:50:44.059Z,97.44
2023-04-01T13:53:33.483Z,97.08
2023-04-01T13:56:11.888Z,96.90
2023-04-01T13:59:19.271Z,96.64
2023-04-01T14:01:51.972Z,96.52
2023-04-01T14:04:38.391Z,96.44
2023-04-01T14:07:14.979Z,96.36
2023-04-01T14:10:04.045Z,96.63
2023-04-01T14:12:36.683Z,96.47
2023-04-01T14:15:29.512Z,96.31
2023-04-01T14:18:11.430Z,96.35
2023-04-01T14:20:44.286Z,96.44
2023-04-01T14:23:28.799Z,96.25
2023-04-01T14:26:36.841Z,96.32
2023-04-01T14:29:16.494Z,96.58
2023-04-01T14:31:58.544Z,96.34
2023-04-01T14:34:40.861Z,96.56
2023-04-01T14:37:36.064Z,96.86
2023-04-01T14:40:24.203Z,97.06
2023-04-01T14:43:03.421Z,97.32
2023-04-01T14:45:50.456Z,97.55
2023-04-01T14:48:27.418Z,97.68
2023-04-01T14:50:58.885Z,97.59
2023-04-01T14:53:31.777Z,97.68
2023-04-01T14:56:03.870Z,97.67
2023-04-01T14:58:45.452Z,97.64
2023-04-01T15:01:34.163Z,97.67
2023-04-01T15:04:18.060Z,97.77
2023-04-01T15:07:06.482Z,97.65
2023-04-01T15:09:40.702Z,97.71
2023-04-01T15:12:19.800Z,97.50
2023-04-01T15:14:56.137Z,97.23
2023-04-01T15:17:57.368Z,97.15
2023-04-01T15:20:55.452Z,96.99
2023-04-01T15:23:32.097Z,96.87
2023-04-01T15:26:17.597Z,96.61
2023-04-01T15:28:54.680Z,96.67
2023-04-01T15:31:28.541Z,96.62
2023-04-01T15:34:16.668Z,96.53
2023-04-01T15:36:49.011Z,96.89
2023-04-01T15:39:22.236Z,96.75
2023-04-01T15:42:04.251Z,96.75
2023-04-01T15:44:48.704Z,96.52
2023-04-01T15:47:36.500Z,96.53
2023-04-01T15:50:26.472Z,96.65
2023-04-01T15:53:07.432Z,96.60
2023-04-01T15:55:41.870Z,96.59
2023-04-01T15:58:29.887Z,96.79
2023-04-01T16:01:06.458Z,96.77
2023-04-01T16:03:41.939Z,96.77
2023-04-01T16:06:49.824Z,96.77
2023-04-01T16:09:31.783Z,96.83
2023-04-01T16:12:05.685Z,96.88
2023-04-01T16:14:43.318Z,97.12
2023-04-01T16:17:28.739Z,97.24
2023-04-01T16:20:00.218Z,97.42
2023-04-01T16:22:35.624Z,97.53
2023-04-01T16:25:21.539Z,97.49
2023-04-01T16:27:56.485Z,97.58
2023-04-01T16:30:39.388Z,97.93
2023-04-01T16:33:15.667Z,98.03
2023-04-01T16:35:48.528Z,98.04
2023-04-01T16:38:27.737Z,98.08
2023-04-01T16:41:09.443Z,98.22
2023-04-01T16:43:43.437Z,98.33
2023-04-01T16:46:37.508Z,98.54
2023-04-01T16:49:19.874Z,98.66
2023-04-01T16:51:52.694Z,98.58
2023-04-01T16:54:32.966Z,98.67
2023-04-01T16:57:08.818Z,98.78
2023-04-01T16:59:39.861Z,98.88
2023-04-01T17:02:15.029Z,98.73
2023-04-01T17:04:48.293Z,99.02
2023-04-01T17:07:26.090Z,99.02
2023-04-01T17:10:06.446Z,99.19
2023-04-01T17:12:42.548Z,99.19
2023-04-01T17:15:23.389Z,99.32
2023-04-01T17:17:58.509Z,99.41
2023-04-01T17:20:39.641Z,99.37
2023-04-01T17:23:17.054Z,99.61
2023-04-01T17:25:59.921Z,99.53
2023-04-01T17:28:38.540Z,99.50
2023-04-01T17:31:14.260Z,99.61
2023-04-01T17:33:57.547Z,99.71
2023-04-01T17:36:40.737Z,99.81
2023-04-01T17:39:28.324Z,99.80
2023-04-01T17:42:08.095Z,99.99
2023-04-01T17:44:55.771Z,99.90
2023-04-01T17:47:48.451Z,100.00
2023-04-01T17:50:26.140Z,100.00
2023-04-01T17:53:18.745Z,100.00
2023-04-01T17:55:56.221Z,100.00
2023-04-01T17:58:33.157Z,100.00
2023-04-01T18:01:13.577Z,100.00
2023-04-01T18:04:01.221Z,100.00
2023-04-01T18:06:37.771Z,100.00
2023-04-01T18:09:18.983Z,100.00
2023-04-01T18:11:57.632Z,100.00
2023-04-01T18:14:57.608Z,100.00
2023-04-01T18:17:44.156Z,100.00
2023-04-01T18:20:27.860Z,100.00
2023-04-01T18:22:59.264Z,100.00
2023-04-01T18:25:32.842Z,100.00
2023-04-01T18:28:18.986Z,100.00
2023-04-01T18:30:55.913Z,100.00
2023-04-01T18:33:32.524Z,100.00
2023-04-01T18:36:12.340Z,100.00
2023-04-01T18:38:44.990Z,100.00
2023-04-01T18:41:18.968Z,100.00
2023-04-01T18:44:01.409Z,100.00
2023-04-01T18:46:35.249Z,100.00
2023-04-01T18:49:11.446Z,100.00
2023-04-01T18:51:45.965Z,100.00
2023-04-01T18:54:18.787Z,100.00
2023-04-01T18:56:49.555Z,100.00
2023-04-01T18:59:23.520Z,100.00
2023-04-01T19:02:03.191Z,100.00
2023-04-01T19:04:40.492Z,100.00
2023-04-01T19:07:38.215Z,100.00
2023-04-01T19:10:18.745Z,100.00
2023-04-01T19:12:56.461Z,100.00
2023-04-01T19:15:34.217Z,100.00
2023-04-01T19:18:27.382Z,100.00
2023-04-01T19:21:03.482Z,100.00
2023-04-01T19:24:07.338Z,100.00
2023-04-01T19:26:40.630Z,100.00
2023-04-01T19:29:17.375Z,100.00
2023-04-01T19:31:56.438Z,100.00
2023-04-01T19:34:32.126Z,100.00
2023-04-01T19:37:07.237Z,100.00
2023-04-01T19:39:49.762Z,100.00
2023-04-01T19:42:26.653Z,100.00
2023-04-01T19:45:06.092Z,100.00
2023-04-01T19:47:49.475Z,100.00
2023-04-01T19:50:30.935Z,100.00
2023-04-01T19:53:08.258Z,100.00
2023-04-01T19:55:44.270Z,100.00
2023-04-01T19:58:19.515Z,100.00
2023-04-01T20:00:52.863Z,100.00
2023-04-01T20:03:33.644Z,100.00
2023-04-01T20:06:11.537Z,100.00
2023-04-01T20:08:46.785Z,100.00
2023-04-01T20:11:29.090Z,100.00
2023-04-01T20:14:08.837Z,100.00
2023-04-01T20:16:53.469Z,100.00
2023-04-01T20:19:32.365Z,100.00
2023-04-01T20:22:04.219Z,100.00
2023-04-01T20:24:39.190Z,100.00
2023-04-01T20:27:13.827Z,100.00
2023-04-01T20:29:51.912Z,100.00
2023-04-01T20:32:38.147Z,100.00
2023-04-01T20:35:22.250Z,100.00
2023-04-01T20:37:55.923Z,100.00
2023-04-01T20:40:38.024Z,100.00
2023-04-01T20:43:21.469Z,100.00
2023-04-01T20:45:57.944Z,100.00
2023-04-01T20:48:57.532Z,100.00
2023-04-01T20:51:30.614Z,100.00
2023-04-01T20:54:13.747Z,100.00
2023-04-01T20:56:57.454Z,100.00
2023-04-01T20:59:46.090Z,100.00
2023-04-01T21:02:34.206Z,100.00
2023-04-01T21:05:34.759Z,100.00
2023-04-01T21:08:07.875Z,100.00
2023-04-01T21:10:44.731Z,100.00
2023-04-01T21:13:26.920Z,100.00
2023-04-01T21:16:06.725Z,100.00
2023-04-01T21:18:54.819Z,100.00
2023-04-01T21:21:40.770Z,100.00
2023-04-01T21:24:51.842Z,100.00
2023-04-01T21:27:39.574Z,100.00
2023-04-01T21:30:23.554Z,100.00
2023-04-01T21:33:06.596Z,100.00
2023-04-01T21:35:42.053Z,100.00
2023-04-01T21:38:21.348Z,100.00
2023-04-01T21:41:35.998Z,100.00
2023-04-01T21:44:39.673Z,100.00
2023-04-01T21:47:40.627Z,100.00
2023-04-01T21:50:26.331Z,100.00
2023-04-01T21:53:07.343Z,100.00
2023-04-01T21:56:03.239Z,100.00
2023-04-01T21:58:54.812Z,100.00
2023-04-01T22:01:34.748Z,100.00
2023-04-01T22:04:24.937Z,100.00
2023-04-01T22:06:57.023Z,100.00
2023-04-01T22:09:29.556Z,100.00
2023-04-01T22:12:02.591Z,100.00
2023-04-01T22:14:35.367Z,100.00
2023-04-01T22:17:14.704Z,100.00
2023-04-01T22:19:54.192Z,100.00
2023-04-01T22:22:26.399Z,100.00
2023-04-01T22:25:03.730Z,100.00
2023-04-01T22:27:39.281Z,100.00
2023-04-01T22:30:16.450Z,100.00
2023-04-01T22:32:48.124Z,100.00
2023-04-01T22:35:31.753Z,100.00
2023-04-01T22:38:09.711Z,100.00
2023-04-01T22:40:46.249Z,100.00
2023-04-01T22:43:17.652Z,100.00
2023-04-01T22:46:00.282Z,100.00
2023-04-01T22:48:39.524Z,100.00
2023-04-01T22:51:19.185Z,100.00
2023-04-01T22:54:05.871Z,100.00
2023-04-01T22:56:40.806Z,100.00
2023-04-01T22:59:14.479Z,100.00
2023-04-01T23:01:48.481Z,100.00
2023-04-01T23:04:20.981Z,100.00
2023-04-01T23:06:57.499Z,100.00
2023-04-01T23:09:28.094Z,100.00
2023-04-01T23:11:59.681Z,100.00
2023-04-01T23:14:45.405Z,100.00
2023-04-01T23:17:32.481Z,100.00
2023-04-01T23:20:10.148Z,100.00
2023-04-01T23:22:51.473Z,100.00
2023-04-01T23:25:28.556Z,100.00
2023-04-01T23:28:03.464Z,100.00
2023-04-01T23:30:52.121Z,100.00
2023-04-01T23:33:27.338Z,100.00
2023-04-01T23:36:06.021Z,100.00
2023-04-01T23:38:42.782Z,100.00
2023-04-01T23:41:20.178Z,100.00
2023-04-01T23:43:54.477Z,100.00
2023-04-01T23:46:24.752Z,100.00
2023-04-01T23:48:54.622Z,100.00
2023-04-01T23:51:26.584Z,100.00
2023-04-01T23:54:06.516Z,100.00
2023-04-01T23:56:39.486Z,100.00
2023-04-01T23:59:09.157Z,100.00
